Time;durP1;ratioP1;P1;durP2;ratioP2;P2;SDS_P1;SDS_P2;PMS_P1;PMS_P2;Temp;Humidity;BMP_temperature;BMP_pressure;BME280_temperature;BME280_humidity;BME280_pressure;Samples;Min_cycle;Max_cycle;Signal;HPM_P1;HPM_P2
2022/05/26 00:02:19;;;;;;;1.80;1.30;;;15.20;74.20;;;;;;4981002;28;20060;-76
2022/05/26 00:04:46;;;;;;;1.50;1.20;;;15.30;74.30;;;;;;4998126;28;20070;-76
2022/05/26 00:07:11;;;;;;;1.30;1.20;;;15.20;74.40;;;;;;4948341;28;20030;-76
2022/05/26 00:09:37;;;;;;;1.95;1.15;;;15.20;74.50;;;;;;4998709;28;20037;-77
2022/05/26 00:12:04;;;;;;;1.88;1.40;;;15.10;74.50;;;;;;4996588;28;20030;-77
2022/05/26 00:14:30;;;;;;;1.75;1.30;;;15.20;74.70;;;;;;4993890;28;20042;-76
2022/05/26 00:16:56;;;;;;;2.03;1.50;;;15.10;74.70;;;;;;4977849;28;20133;-77
2022/05/26 00:19:22;;;;;;;1.98;1.17;;;15.10;74.90;;;;;;4976924;28;20558;-76
2022/05/26 00:21:49;;;;;;;1.95;1.40;;;15.10;75.00;;;;;;4976442;28;20031;-76
2022/05/26 00:24:18;;;;;;;2.33;1.50;;;15.10;75.10;;;;;;4978379;28;20033;-76
2022/05/26 00:26:45;;;;;;;1.63;1.33;;;15.10;75.30;;;;;;4994168;28;20081;-76
2022/05/26 00:29:11;;;;;;;1.77;1.30;;;15.10;76.00;;;;;;4994883;28;20213;-76
2022/05/26 00:31:37;;;;;;;1.55;1.27;;;15.00;75.40;;;;;;4977860;28;20069;-76
2022/05/26 00:34:03;;;;;;;1.38;1.08;;;15.00;75.50;;;;;;4976944;28;20038;-77
2022/05/26 00:36:44;;;;;;;1.58;1.17;;;15.00;75.60;;;;;;4993453;28;20062;-76
2022/05/26 00:39:18;;;;;;;1.45;1.17;;;15.00;75.80;;;;;;4979534;28;20077;-76
2022/05/26 00:41:48;;;;;;;1.92;1.20;;;15.00;75.90;;;;;;4976230;28;20031;-76
2022/05/26 00:44:15;;;;;;;1.23;0.82;;;15.00;76.00;;;;;;4993422;28;20034;-77
2022/05/26 00:46:56;;;;;;;1.30;1.20;;;15.00;76.10;;;;;;4994614;28;20114;-76
2022/05/26 00:49:36;;;;;;;1.55;1.23;;;14.90;76.10;;;;;;4996789;28;20038;-76
2022/05/26 00:52:03;;;;;;;1.40;1.15;;;14.90;76.20;;;;;;4978173;28;20034;-76
2022/05/26 00:54:30;;;;;;;1.48;1.10;;;14.90;76.30;;;;;;4991820;28;20495;-76
2022/05/26 00:57:02;;;;;;;2.55;1.10;;;14.90;76.40;;;;;;4978502;28;20121;-76
2022/05/26 00:59:37;;;;;;;1.50;0.95;;;14.90;76.50;;;;;;4993156;28;20073;-76
2022/05/26 01:02:04;;;;;;;1.15;0.80;;;14.90;76.50;;;;;;4993728;28;20034;-76
2022/05/26 01:04:39;;;;;;;2.00;1.00;;;14.90;76.50;;;;;;4993164;28;20039;-76
2022/05/26 01:07:23;;;;;;;0.88;0.80;;;14.90;76.60;;;;;;4976211;28;20039;-76
2022/05/26 01:09:48;;;;;;;0.90;0.90;;;14.90;76.70;;;;;;4993354;28;20038;-76
2022/05/26 01:12:15;;;;;;;1.90;1.33;;;14.90;76.70;;;;;;4979384;28;20145;-78
2022/05/26 01:14:46;;;;;;;1.13;1.00;;;14.90;76.70;;;;;;4975651;28;20046;-76
2022/05/26 01:17:43;;;;;;;1.13;1.02;;;14.90;76.80;;;;;;4993774;28;20485;-76
2022/05/26 01:20:39;;;;;;;1.83;1.25;;;15.00;76.90;;;;;;4993460;28;20496;-76
2022/05/26 01:23:32;;;;;;;1.60;1.20;;;15.10;77.00;;;;;;4978647;28;20035;-76
2022/05/26 01:26:18;;;;;;;1.13;1.00;;;15.00;76.90;;;;;;4993346;28;20053;-76
2022/05/26 01:29:09;;;;;;;1.40;1.05;;;14.90;76.90;;;;;;4975371;28;20038;-76
2022/05/26 01:31:46;;;;;;;1.67;1.10;;;14.90;76.90;;;;;;4993200;28;20508;-76
2022/05/26 01:34:30;;;;;;;1.20;1.10;;;14.80;76.90;;;;;;4993220;28;20061;-75
2022/05/26 01:37:23;;;;;;;1.70;1.40;;;14.90;77.10;;;;;;4992532;28;20401;-77
2022/05/26 01:40:10;;;;;;;1.55;1.23;;;14.90;77.10;;;;;;4959927;28;20485;-76
2022/05/26 01:42:54;;;;;;;1.60;1.20;;;15.00;77.20;;;;;;4975508;28;20034;-77
2022/05/26 01:45:37;;;;;;;1.23;1.00;;;14.90;77.10;;;;;;4977189;28;20135;-76
2022/05/26 01:48:14;;;;;;;2.92;1.30;;;14.90;77.10;;;;;;4993298;28;20035;-76
2022/05/26 01:50:55;;;;;;;1.50;1.20;;;14.90;77.20;;;;;;4993153;28;20036;-76
2022/05/26 01:53:31;;;;;;;3.70;1.20;;;15.00;77.30;;;;;;4993223;28;20034;-76
2022/05/26 01:56:13;;;;;;;2.00;1.30;;;14.90;77.20;;;;;;4992585;28;20073;-76
2022/05/26 01:58:45;;;;;;;1.65;0.93;;;15.00;77.30;;;;;;4992966;28;20046;-76
2022/05/26 02:01:16;;;;;;;2.03;1.20;;;15.00;77.30;;;;;;4975726;28;20085;-76
2022/05/26 02:03:45;;;;;;;1.73;1.40;;;15.00;77.40;;;;;;4975410;28;20129;-77
2022/05/26 02:06:20;;;;;;;1.35;1.13;;;15.00;77.40;;;;;;4959622;28;20496;-76
2022/05/26 02:09:08;;;;;;;2.15;1.02;;;15.00;77.40;;;;;;4992668;28;20101;-76
2022/05/26 02:11:40;;;;;;;1.55;1.10;;;14.90;77.40;;;;;;4992304;28;20833;-76
2022/05/26 02:14:18;;;;;;;2.78;1.40;;;15.00;77.40;;;;;;4992086;28;20065;-76
2022/05/26 02:16:51;;;;;;;2.00;1.00;;;15.00;77.50;;;;;;4992320;28;20046;-76
2022/05/26 02:19:30;;;;;;;3.38;1.30;;;15.00;77.50;;;;;;4974872;28;20034;-77
2022/05/26 02:22:18;;;;;;;2.42;1.38;;;15.00;77.50;;;;;;4974918;28;20116;-76
2022/05/26 02:25:05;;;;;;;1.15;0.98;;;15.00;77.60;;;;;;4991940;28;20030;-75
2022/05/26 02:27:31;;;;;;;2.10;1.20;;;15.10;77.70;;;;;;4992097;28;20499;-76
2022/05/26 02:30:00;;;;;;;2.42;1.27;;;15.00;77.60;;;;;;4974852;28;20495;-76
2022/05/26 02:32:37;;;;;;;2.72;1.10;;;15.00;77.70;;;;;;4974586;28;20076;-76
2022/05/26 02:35:20;;;;;;;1.90;1.35;;;15.00;77.80;;;;;;4973865;28;20034;-76
2022/05/26 02:37:50;;;;;;;1.35;1.15;;;15.00;77.90;;;;;;4974205;28;20050;-76
2022/05/26 02:40:17;;;;;;;2.58;1.33;;;15.00;77.90;;;;;;4992639;28;20042;-75
2022/05/26 02:42:51;;;;;;;2.80;1.50;;;14.90;77.90;;;;;;4974508;28;20035;-76
2022/05/26 02:45:44;;;;;;;2.33;1.40;;;15.00;78.00;;;;;;4974490;28;20544;-75
2022/05/26 02:48:31;;;;;;;3.53;1.40;;;14.90;78.00;;;;;;4991776;28;20503;-76
2022/05/26 02:51:21;;;;;;;2.17;1.30;;;14.90;78.10;;;;;;4959891;28;20428;-76
2022/05/26 02:54:08;;;;;;;1.88;1.30;;;14.90;78.10;;;;;;4991804;28;20373;-76
2022/05/26 02:56:48;;;;;;;3.42;1.30;;;15.00;78.10;;;;;;4974045;28;20042;-76
2022/05/26 02:59:46;;;;;;;1.30;1.10;;;15.00;78.10;;;;;;4991979;28;20133;-76
2022/05/26 03:02:34;;;;;;;1.52;1.10;;;15.00;78.20;;;;;;4973477;28;20050;-75
2022/05/26 03:05:19;;;;;;;1.48;1.10;;;15.00;78.10;;;;;;4991322;28;20074;-76
2022/05/26 03:07:48;;;;;;;2.42;1.20;;;15.00;78.20;;;;;;4957988;28;20551;-76
2022/05/26 03:10:15;;;;;;;2.10;1.02;;;15.00;78.10;;;;;;4975685;28;20037;-75
2022/05/26 03:12:41;;;;;;;1.38;0.98;;;15.00;78.40;;;;;;4991312;28;20400;-76
2022/05/26 03:15:09;;;;;;;2.33;1.20;;;15.00;78.20;;;;;;4991453;28;20139;-76
2022/05/26 03:17:35;;;;;;;4.43;1.50;;;15.00;78.30;;;;;;4957929;28;20408;-76
2022/05/26 03:20:02;;;;;;;2.63;1.45;;;15.00;78.30;;;;;;4991558;28;20038;-76
2022/05/26 03:22:28;;;;;;;2.17;1.23;;;15.10;78.40;;;;;;4974020;28;20436;-76
2022/05/26 03:24:54;;;;;;;2.50;1.38;;;15.00;78.40;;;;;;4991585;28;20071;-76
2022/05/26 03:27:20;;;;;;;2.80;1.17;;;15.00;78.50;;;;;;4974342;28;20824;-76
2022/05/26 03:29:46;;;;;;;1.95;1.13;;;14.90;78.50;;;;;;4973776;28;20038;-77
2022/05/26 03:32:11;;;;;;;2.58;1.23;;;14.90;78.60;;;;;;4991161;28;20046;-76
2022/05/26 03:42:40;;;;;;;1.30;0.90;;;14.90;78.90;;;;;;4975855;28;20042;-76
2022/05/26 03:45:07;;;;;;;1.73;0.90;;;14.90;78.90;;;;;;4991130;28;20038;-76
2022/05/26 03:47:33;;;;;;;1.92;0.98;;;14.80;78.90;;;;;;4993389;28;20389;-76
2022/05/26 03:49:59;;;;;;;3.60;0.95;;;14.90;79.00;;;;;;4976896;28;20046;-77
2022/05/26 03:52:25;;;;;;;1.88;0.82;;;14.90;79.10;;;;;;4976913;28;20527;-76
2022/05/26 03:54:50;;;;;;;2.22;0.88;;;14.90;79.10;;;;;;4976199;28;20046;-76
2022/05/26 03:57:25;;;;;;;1.98;0.98;;;14.80;79.10;;;;;;4977166;28;20122;-77
2022/05/26 03:59:51;;;;;;;2.05;1.10;;;14.80;79.10;;;;;;4977148;28;20073;-77
2022/05/26 04:02:16;;;;;;;1.75;1.02;;;14.80;79.10;;;;;;4977564;28;20073;-77
2022/05/26 04:04:42;;;;;;;1.92;1.00;;;14.80;79.20;;;;;;4994597;28;20492;-76
2022/05/26 04:07:08;;;;;;;2.08;1.10;;;14.80;79.20;;;;;;4960714;28;20053;-76
2022/05/26 04:09:34;;;;;;;1.42;1.02;;;14.80;79.30;;;;;;4993320;28;20045;-76
2022/05/26 04:12:00;;;;;;;1.70;0.88;;;14.80;79.40;;;;;;4994489;28;20093;-77
2022/05/26 04:14:25;;;;;;;1.73;0.95;;;14.70;79.50;;;;;;4976803;28;20039;-78
2022/05/26 04:16:51;;;;;;;1.85;1.13;;;14.70;79.50;;;;;;4994337;28;20037;-76
2022/05/26 04:19:17;;;;;;;1.33;0.90;;;14.70;79.60;;;;;;4960809;28;20046;-76
2022/05/26 04:22:23;;;;;;;0.70;0.70;;;14.70;79.60;;;;;;4977115;28;20496;-76
2022/05/26 04:24:28;;;;;;;1.83;1.02;;;14.80;79.70;;;;;;4979814;28;20038;-76
2022/05/26 04:26:55;;;;;;;2.47;1.00;;;14.70;79.70;;;;;;4960919;28;20392;-77
2022/05/26 04:29:23;;;;;;;2.65;1.10;;;14.70;79.80;;;;;;4994078;28;20093;-77
2022/05/26 04:31:50;;;;;;;2.28;0.80;;;14.70;79.80;;;;;;4993464;28;20100;-77
2022/05/26 04:34:17;;;;;;;1.52;0.80;;;14.70;79.80;;;;;;4994422;28;20058;-76
2022/05/26 04:36:43;;;;;;;1.95;1.10;;;14.70;79.70;;;;;;4992749;28;20089;-76
2022/05/26 04:39:09;;;;;;;3.00;1.02;;;14.80;79.80;;;;;;4994046;28;20042;-77
2022/05/26 04:41:35;;;;;;;2.55;0.80;;;14.80;79.70;;;;;;4960279;28;20035;-77
2022/05/26 04:44:00;;;;;;;1.92;0.80;;;14.80;79.70;;;;;;4960347;28;20472;-77
2022/05/26 04:46:26;;;;;;;2.22;1.05;;;14.90;79.80;;;;;;4976779;28;20080;-77
2022/05/26 04:48:52;;;;;;;1.58;0.68;;;14.90;79.80;;;;;;4976940;28;20046;-77
2022/05/26 04:51:18;;;;;;;1.70;0.93;;;14.80;79.70;;;;;;4994047;28;20046;-77
2022/05/26 04:53:44;;;;;;;1.75;0.95;;;14.90;79.80;;;;;;4994281;28;20485;-77
2022/05/26 04:56:10;;;;;;;0.98;0.70;;;14.90;79.60;;;;;;4976823;28;20034;-77
2022/05/26 04:58:36;;;;;;;1.80;1.17;;;14.90;79.60;;;;;;4993633;28;20046;-79
2022/05/26 05:01:13;;;;;;;2.95;0.70;;;14.90;79.60;;;;;;4976850;28;20049;-78
2022/05/26 05:03:39;;;;;;;2.10;0.77;;;15.00;79.80;;;;;;4993988;28;20033;-77
2022/05/26 05:06:05;;;;;;;2.17;0.70;;;14.90;79.70;;;;;;4976504;28;20030;-77
2022/05/26 05:08:31;;;;;;;2.53;0.93;;;15.00;79.70;;;;;;4976442;28;20049;-77
2022/05/26 05:10:57;;;;;;;2.35;0.82;;;15.10;79.70;;;;;;4976591;28;20042;-77
2022/05/26 05:13:24;;;;;;;2.78;0.82;;;15.00;79.60;;;;;;4976315;28;20049;-77
2022/05/26 05:15:58;;;;;;;2.65;1.00;;;15.00;79.70;;;;;;4993475;28;20118;-76
2022/05/26 05:18:24;;;;;;;2.78;1.10;;;15.10;79.70;;;;;;4992990;28;20042;-78
2022/05/26 05:20:51;;;;;;;2.35;0.90;;;15.10;79.70;;;;;;4993938;28;20607;-78
2022/05/26 05:23:17;;;;;;;2.05;0.90;;;15.10;79.60;;;;;;4993563;28;20049;-78
2022/05/26 05:25:57;;;;;;;1.60;0.80;;;15.10;79.70;;;;;;4993536;28;20110;-78
2022/05/26 05:28:31;;;;;;;3.03;1.33;;;15.20;79.70;;;;;;4962922;28;20070;-78
2022/05/26 05:31:01;;;;;;;1.90;0.90;;;15.20;79.70;;;;;;4976207;28;20035;-77
2022/05/26 05:33:39;;;;;;;4.20;0.98;;;15.30;79.70;;;;;;4976306;28;20405;-78
2022/05/26 05:36:09;;;;;;;2.03;1.00;;;15.20;79.60;;;;;;4993609;28;20101;-77
2022/05/26 05:38:38;;;;;;;1.50;0.68;;;15.30;79.60;;;;;;4975466;28;20108;-78
2022/05/26 05:41:05;;;;;;;1.27;0.80;;;15.30;79.60;;;;;;4975168;28;20115;-77
2022/05/26 05:43:34;;;;;;;1.63;0.88;;;15.40;79.60;;;;;;4976390;28;20035;-77
2022/05/26 05:46:01;;;;;;;2.03;0.90;;;15.50;79.60;;;;;;4976398;28;20030;-77
2022/05/26 05:48:27;;;;;;;3.83;0.85;;;15.50;79.40;;;;;;4993193;28;20035;-78
2022/05/26 05:50:54;;;;;;;1.63;0.80;;;15.50;79.50;;;;;;4959472;28;20520;-78
2022/05/26 05:53:21;;;;;;;2.28;0.90;;;15.50;79.60;;;;;;4993593;28;20124;-77
2022/05/26 05:55:48;;;;;;;1.35;0.70;;;15.50;79.50;;;;;;4974992;28;20039;-77
2022/05/26 05:58:14;;;;;;;2.38;1.00;;;15.50;79.60;;;;;;4975381;28;20051;-77
2022/05/26 06:00:41;;;;;;;3.38;1.00;;;15.50;79.60;;;;;;4992104;28;20373;-77
2022/05/26 06:03:08;;;;;;;2.28;1.10;;;15.70;79.70;;;;;;4993389;28;20026;-77
2022/05/26 06:05:35;;;;;;;1.38;0.95;;;15.60;79.70;;;;;;4975541;28;20035;-77
2022/05/26 06:08:01;;;;;;;2.30;0.88;;;15.60;79.70;;;;;;4992866;28;20138;-76
2022/05/26 06:10:28;;;;;;;3.05;1.10;;;15.70;79.80;;;;;;4992518;28;20049;-76
2022/05/26 06:12:54;;;;;;;2.40;0.90;;;15.70;79.60;;;;;;4992677;28;20089;-76
2022/05/26 06:15:20;;;;;;;2.30;1.00;;;15.80;79.50;;;;;;4993285;28;20432;-76
2022/05/26 06:17:46;;;;;;;3.10;0.90;;;15.80;79.30;;;;;;4993383;28;20038;-76
2022/05/26 06:20:13;;;;;;;2.13;0.80;;;15.80;79.20;;;;;;4975253;28;20116;-77
2022/05/26 06:22:42;;;;;;;2.40;1.00;;;15.90;79.30;;;;;;4959371;28;20476;-77
2022/05/26 06:25:08;;;;;;;1.95;0.63;;;15.90;79.20;;;;;;4992385;28;20039;-77
2022/05/26 06:30:17;;;;;;;2.72;0.73;;;16.00;79.40;;;;;;4977502;28;20077;-77
2022/05/26 06:38:05;;;;;;;1.10;0.80;;;16.10;79.30;;;;;;4992111;28;20054;-77
2022/05/26 06:40:31;;;;;;;1.80;0.77;;;16.10;79.20;;;;;;4992427;28;20575;-78
2022/05/26 06:42:57;;;;;;;2.28;0.85;;;16.20;79.30;;;;;;4974684;28;20039;-77
2022/05/26 06:45:23;;;;;;;0.43;0.43;;;16.30;79.20;;;;;;4975812;28;20049;-78
2022/05/26 06:47:49;;;;;;;2.05;0.85;;;16.40;79.00;;;;;;4992979;28;20085;-77
2022/05/26 06:50:15;;;;;;;2.85;0.88;;;16.50;78.70;;;;;;4992166;28;20501;-78
2022/05/26 06:52:41;;;;;;;1.58;1.00;;;16.70;78.30;;;;;;4974942;28;20046;-78
2022/05/26 06:55:08;;;;;;;3.97;0.85;;;16.70;78.20;;;;;;4992297;28;20085;-77
2022/05/26 06:57:34;;;;;;;3.03;0.80;;;16.60;78.30;;;;;;4975558;28;20042;-77
2022/05/26 07:00:00;;;;;;;2.75;0.70;;;16.70;78.50;;;;;;4992180;28;20374;-77
2022/05/26 07:02:27;;;;;;;3.63;0.82;;;16.90;78.40;;;;;;4994980;28;20061;-79
2022/05/26 07:04:52;;;;;;;2.95;1.00;;;17.20;77.90;;;;;;4994022;28;20544;-78
2022/05/26 07:07:18;;;;;;;1.63;0.65;;;17.40;77.10;;;;;;4992103;28;20125;-77
2022/05/26 07:09:44;;;;;;;1.88;0.60;;;17.40;76.90;;;;;;4992241;28;20122;-78
2022/05/26 07:12:10;;;;;;;3.92;0.88;;;17.60;77.10;;;;;;4977714;28;20400;-78
2022/05/26 07:14:37;;;;;;;1.77;0.65;;;17.70;76.30;;;;;;4977917;28;20035;-77
2022/05/26 07:17:02;;;;;;;1.33;0.47;;;17.70;76.00;;;;;;4992869;28;20070;-77
2022/05/26 07:19:33;;;;;;;1.25;0.60;;;17.60;76.30;;;;;;4959414;28;20073;-77
2022/05/26 07:22:02;;;;;;;2.40;0.63;;;17.50;76.90;;;;;;4977504;28;20555;-77
2022/05/26 07:24:28;;;;;;;1.35;0.77;;;17.40;77.10;;;;;;4961915;28;20134;-76
2022/05/26 07:26:53;;;;;;;1.80;0.65;;;17.40;77.50;;;;;;4978477;28;20524;-77
2022/05/26 07:29:19;;;;;;;2.90;0.90;;;17.60;77.40;;;;;;4996786;28;20958;-79
2022/05/26 07:31:46;;;;;;;2.22;0.77;;;17.90;76.90;;;;;;4995421;28;20117;-76
2022/05/26 07:34:11;;;;;;;1.13;0.70;;;18.10;76.20;;;;;;4978251;28;20031;-76
2022/05/26 07:42:07;;;;;;;2.40;1.07;;;18.30;75.70;;;;;;4997060;28;20114;-77
2022/05/26 07:44:36;;;;;;;2.25;0.75;;;18.50;75.50;;;;;;4995674;28;20282;-76
2022/05/26 07:47:05;;;;;;;1.17;0.60;;;18.80;75.10;;;;;;5000102;28;20042;-75
2022/05/26 07:49:33;;;;;;;1.27;0.47;;;19.00;74.70;;;;;;4993638;28;20030;-75
2022/05/26 07:52:01;;;;;;;0.95;0.50;;;19.20;74.30;;;;;;4965049;28;20118;-75
2022/05/26 07:54:28;;;;;;;1.67;0.77;;;19.40;73.90;;;;;;4980153;28;20492;-76
2022/05/26 07:56:55;;;;;;;0.82;0.68;;;19.50;73.80;;;;;;4998048;28;20114;-75
2022/05/26 07:59:21;;;;;;;0.88;0.65;;;19.70;73.70;;;;;;4995888;28;20043;-76
2022/05/26 08:01:48;;;;;;;0.95;0.47;;;19.80;73.20;;;;;;4997936;28;20435;-75
2022/05/26 08:04:15;;;;;;;1.42;0.40;;;19.70;72.90;;;;;;4978369;28;20066;-76
2022/05/26 08:06:45;;;;;;;0.85;0.65;;;19.60;73.30;;;;;;4995313;28;20041;-75
2022/05/26 08:09:11;;;;;;;1.00;0.60;;;19.30;73.90;;;;;;4995021;28;20035;-75
2022/05/26 08:11:37;;;;;;;1.90;0.60;;;19.10;74.60;;;;;;4995258;28;20030;-75
2022/05/26 08:14:03;;;;;;;1.52;0.70;;;19.10;75.20;;;;;;4977539;28;20389;-75
2022/05/26 08:16:28;;;;;;;0.80;0.60;;;19.10;75.10;;;;;;4994558;28;20022;-75
2022/05/26 08:18:54;;;;;;;1.15;0.60;;;19.10;75.10;;;;;;4960947;28;20081;-75
2022/05/26 08:21:20;;;;;;;1.02;0.70;;;19.00;75.10;;;;;;4977643;28;20031;-75
2022/05/26 08:23:46;;;;;;;1.25;0.52;;;18.90;75.10;;;;;;4994548;28;20049;-75
2022/05/26 08:26:12;;;;;;;2.13;0.75;;;18.90;75.60;;;;;;4979209;28;20043;-77
2022/05/26 08:28:38;;;;;;;1.42;0.57;;;19.10;75.60;;;;;;5000530;28;20044;-75
2022/05/26 08:31:04;;;;;;;1.13;0.45;;;19.20;75.00;;;;;;4982995;28;20125;-76
2022/05/26 08:33:30;;;;;;;1.65;0.60;;;19.60;74.50;;;;;;4993955;28;20049;-75
2022/05/26 08:36:08;;;;;;;0.77;0.50;;;19.80;73.70;;;;;;4995147;28;20050;-77
2022/05/26 08:38:35;;;;;;;1.67;0.60;;;20.10;73.00;;;;;;4997333;28;20049;-76
2022/05/26 08:41:02;;;;;;;1.23;0.50;;;20.30;72.60;;;;;;4994897;28;20065;-77
2022/05/26 08:43:57;;;;;;;0.40;0.40;;;20.40;72.00;;;;;;4994862;28;20042;-76
2022/05/26 08:46:25;;;;;;;0.85;0.50;;;20.40;72.00;;;;;;4994680;28;20057;-77
2022/05/26 08:49:03;;;;;;;0.57;0.40;;;20.10;72.40;;;;;;4994243;28;20045;-77
2022/05/26 08:51:49;;;;;;;0.77;0.50;;;19.90;72.90;;;;;;4993954;28;20050;-76
2022/05/26 08:54:30;;;;;;;0.40;0.40;;;19.60;73.60;;;;;;4994513;28;20169;-77
2022/05/26 08:56:59;;;;;;;0.90;0.50;;;19.40;74.10;;;;;;4976395;28;20049;-77
2022/05/26 08:59:33;;;;;;;1.65;0.50;;;19.30;74.30;;;;;;4976484;28;20039;-76
2022/05/26 09:02:01;;;;;;;0.60;0.55;;;19.30;74.40;;;;;;4993860;28;20035;-75
2022/05/26 09:04:27;;;;;;;0.80;0.60;;;19.10;74.60;;;;;;4994600;28;20122;-76
2022/05/26 09:15:14;;;;;;;1.05;0.50;;;19.70;72.70;;;;;;4978375;28;20044;-76
2022/05/26 09:17:39;;;;;;;0.90;0.43;;;19.90;72.50;;;;;;4977131;28;20050;-77
2022/05/26 09:20:36;;;;;;;1.55;0.95;;;20.00;71.60;;;;;;4993175;28;20042;-76
2022/05/26 09:23:15;;;;;;;1.00;0.60;;;20.00;71.30;;;;;;4976073;28;20553;-76
2022/05/26 09:25:48;;;;;;;1.00;0.80;;;19.70;71.70;;;;;;4993821;28;20038;-77
2022/05/26 09:28:39;;;;;;;0.82;0.60;;;19.60;72.40;;;;;;4994640;28;20075;-79
2022/05/26 09:31:32;;;;;;;1.02;0.68;;;19.70;72.10;;;;;;4977860;28;20048;-78
2022/05/26 09:34:03;;;;;;;1.25;0.68;;;19.60;72.00;;;;;;4994546;28;20045;-77
2022/05/26 09:36:33;;;;;;;1.08;0.60;;;19.50;72.20;;;;;;4993677;28;20485;-77
2022/05/26 09:38:58;;;;;;;0.50;0.50;;;19.50;72.70;;;;;;4994416;28;20125;-76
2022/05/26 09:41:25;;;;;;;1.00;0.52;;;19.60;72.60;;;;;;4993864;28;20065;-77
2022/05/26 09:43:55;;;;;;;1.00;0.65;;;19.90;72.10;;;;;;4976167;28;20510;-76
2022/05/26 09:46:24;;;;;;;;;;;20.30;70.90;;;;;;4993550;28;20042;-73
2022/05/26 09:48:56;;;;;;;1.20;0.55;;;20.40;70.40;;;;;;4992822;28;19913;-74
2022/05/26 09:51:25;;;;;;;0.70;0.50;;;20.60;70.20;;;;;;4992783;28;20145;-75
2022/05/26 09:53:54;;;;;;;1.75;0.73;;;20.80;69.90;;;;;;4992889;28;20034;-74
2022/05/26 09:56:33;;;;;;;0.32;0.32;;;21.10;69.10;;;;;;4993308;28;20088;-75
2022/05/26 09:58:59;;;;;;;1.35;0.55;;;21.10;68.60;;;;;;4975524;28;20117;-75
2022/05/26 10:01:40;;;;;;;0.38;0.38;;;21.30;68.60;;;;;;4993612;28;20173;-75
2022/05/26 10:04:46;;;;;;;0.65;0.38;;;21.30;68.30;;;;;;4976635;28;20084;-75
2022/05/26 10:07:36;;;;;;;1.20;0.60;;;21.20;68.30;;;;;;4978841;28;20042;-75
2022/05/26 10:10:18;;;;;;;1.30;0.40;;;21.10;68.40;;;;;;4978245;28;20050;-75
2022/05/26 10:12:58;;;;;;;0.63;0.40;;;21.00;68.60;;;;;;4992817;28;20510;-75
2022/05/26 10:15:50;;;;;;;1.08;0.50;;;20.70;69.20;;;;;;4992805;28;20046;-74
2022/05/26 10:18:34;;;;;;;0.47;0.40;;;20.60;69.60;;;;;;4992901;28;20046;-75
2022/05/26 10:21:33;;;;;;;0.20;0.20;;;20.50;69.80;;;;;;4993002;28;20046;-74
2022/05/26 10:24:32;;;;;;;1.00;0.50;;;20.40;70.60;;;;;;4992522;28;20484;-75
2022/05/26 10:27:28;;;;;;;0.40;0.40;;;20.50;69.90;;;;;;4980967;28;20030;-76
2022/05/26 10:30:15;;;;;;;0.80;0.55;;;20.50;69.40;;;;;;4977504;28;20425;-74
2022/05/26 10:33:15;;;;;;;0.55;0.43;;;20.40;69.50;;;;;;4992475;28;20035;-75
2022/05/26 10:36:00;;;;;;;0.70;0.50;;;20.20;69.70;;;;;;4992840;28;20197;-75
2022/05/26 10:39:06;;;;;;;1.08;0.47;;;20.20;70.10;;;;;;4992785;28;20045;-74
2022/05/26 10:41:52;;;;;;;0.28;0.28;;;20.50;69.80;;;;;;4980625;28;20033;-74
2022/05/26 10:44:36;;;;;;;1.15;0.40;;;20.80;69.00;;;;;;4993221;28;20030;-75
2022/05/26 10:47:16;;;;;;;1.35;0.50;;;20.90;68.20;;;;;;4977585;28;20030;-76
2022/05/26 10:49:56;;;;;;;1.98;0.43;;;20.80;68.00;;;;;;4992497;28;20489;-75
2022/05/26 10:52:28;;;;;;;0.68;0.40;;;20.80;68.30;;;;;;4992044;28;20066;-75
2022/05/26 10:55:00;;;;;;;1.00;0.47;;;20.70;68.60;;;;;;4991829;28;20038;-75
2022/05/26 10:57:46;;;;;;;0.70;0.30;;;20.70;68.70;;;;;;4959230;28;20054;-75
2022/05/26 11:00:19;;;;;;;0.95;0.40;;;20.90;68.70;;;;;;4992423;28;20042;-74
2022/05/26 11:02:57;;;;;;;0.57;0.50;;;21.00;67.50;;;;;;4973031;28;20105;-75
2022/05/26 11:05:41;;;;;;;0.90;0.50;;;20.90;67.60;;;;;;4993072;28;20412;-75
2022/05/26 11:08:27;;;;;;;1.42;0.45;;;20.70;67.70;;;;;;4993167;28;20050;-74
2022/05/26 11:11:04;;;;;;;1.40;0.50;;;20.60;68.30;;;;;;4992954;28;20449;-75
2022/05/26 11:14:04;;;;;;;0.50;0.50;;;20.60;68.20;;;;;;4993368;28;20065;-76
2022/05/26 11:19:50;;;;;;;1.20;0.50;;;20.90;67.50;;;;;;4993297;28;20428;-75
2022/05/26 11:22:17;;;;;;;0.98;0.43;;;20.90;67.20;;;;;;4991005;28;20119;-75
2022/05/26 11:24:52;;;;;;;0.93;0.45;;;21.00;67.10;;;;;;4991845;28;20035;-75
2022/05/26 11:27:33;;;;;;;2.90;0.70;;;21.00;66.80;;;;;;4992547;28;20046;-75
2022/05/26 11:30:05;;;;;;;1.17;0.60;;;21.10;66.60;;;;;;4993928;28;20049;-77
2022/05/26 11:38:11;;;;;;;0.68;0.40;;;21.10;66.60;;;;;;4995338;28;20065;-77
2022/05/26 11:40:50;;;;;;;0.50;0.40;;;21.00;66.30;;;;;;4991035;28;20078;-76
2022/05/26 11:43:26;;;;;;;1.38;0.50;;;21.00;66.50;;;;;;4977259;28;20093;-76
2022/05/26 11:45:54;;;;;;;2.47;0.45;;;20.90;66.70;;;;;;4993071;28;20065;-75
2022/05/26 11:48:41;;;;;;;0.80;0.30;;;21.00;66.40;;;;;;4961507;28;20505;-77
2022/05/26 11:51:27;;;;;;;1.67;0.68;;;21.20;66.00;;;;;;5000215;28;20132;-78
2022/05/26 11:53:53;;;;;;;1.02;0.30;;;21.20;65.70;;;;;;4994329;28;20132;-77
2022/05/26 11:56:43;;;;;;;0.52;0.30;;;21.10;65.60;;;;;;4981213;28;20038;-76
2022/05/26 11:59:37;;;;;;;1.05;0.40;;;21.10;65.50;;;;;;4963928;28;20082;-75
2022/05/26 12:02:27;;;;;;;0.45;0.40;;;21.10;65.50;;;;;;4993411;28;20500;-76
2022/05/26 12:04:52;;;;;;;0.73;0.40;;;21.20;65.40;;;;;;4995302;28;20061;-75
2022/05/26 12:07:38;;;;;;;1.83;0.63;;;21.30;65.00;;;;;;4974584;28;20050;-76
2022/05/26 12:10:24;;;;;;;0.50;0.40;;;21.50;64.60;;;;;;4995021;28;20070;-75
2022/05/26 12:13:10;;;;;;;0.70;0.40;;;21.50;64.20;;;;;;4946718;28;20026;-76
2022/05/26 12:15:36;;;;;;;1.98;0.45;;;21.60;64.20;;;;;;4976755;28;20045;-76
2022/05/26 12:18:16;;;;;;;0.70;0.50;;;21.60;64.00;;;;;;4995178;28;20046;-76
2022/05/26 12:20:42;;;;;;;1.02;0.40;;;21.60;63.90;;;;;;4977258;28;20034;-78
2022/05/26 12:23:50;;;;;;;0.52;0.45;;;21.60;64.10;;;;;;4990206;28;20043;-79
2022/05/26 12:26:59;;;;;;;0.25;0.22;;;21.70;63.90;;;;;;5007751;28;20035;-78
2022/05/26 12:30:01;;;;;;;0.57;0.30;;;21.70;64.00;;;;;;4948673;29;20074;-79
2022/05/26 12:32:33;;;;;;;1.13;0.38;;;21.70;63.80;;;;;;4958381;28;20047;-78
2022/05/26 12:35:25;;;;;;;0.57;0.32;;;21.70;63.60;;;;;;4957863;29;20039;-76
2022/05/26 12:38:15;;;;;;;0.90;0.50;;;21.70;63.70;;;;;;4954051;29;20063;-76
2022/05/26 12:40:55;;;;;;;0.55;0.30;;;21.70;63.60;;;;;;4956380;29;20039;-76
2022/05/26 12:43:39;;;;;;;1.25;0.45;;;21.90;63.40;;;;;;4953608;28;20509;-78
2022/05/26 12:46:37;;;;;;;0.45;0.35;;;21.80;63.30;;;;;;4921634;28;20510;-77
2022/05/26 12:49:25;;;;;;;1.58;0.50;;;21.70;63.60;;;;;;4952613;28;20084;-79
2022/05/26 12:52:16;;;;;;;1.02;0.40;;;21.60;63.90;;;;;;4953405;28;20054;-80
2022/05/26 12:55:11;;;;;;;2.55;0.57;;;21.40;64.10;;;;;;4953284;28;20075;-82
2022/05/26 12:57:42;;;;;;;1.95;0.60;;;21.30;64.00;;;;;;4940642;29;20051;-79
2022/05/26 13:00:27;;;;;;;1.90;0.47;;;21.40;63.90;;;;;;4953994;28;20049;-78
2022/05/26 13:02:57;;;;;;;0.43;0.30;;;21.50;64.00;;;;;;4974233;28;20197;-78
2022/05/26 13:05:45;;;;;;;1.55;0.80;;;21.50;63.90;;;;;;4963218;28;20050;-82
2022/05/26 13:08:24;;;;;;;1.48;0.60;;;21.50;64.00;;;;;;4937492;29;20039;-80
2022/05/26 13:10:54;;;;;;;0.80;0.50;;;21.50;63.80;;;;;;4912593;29;20115;-78
2022/05/26 13:13:48;;;;;;;0.82;0.47;;;21.50;63.80;;;;;;4885562;29;20040;-78
2022/05/26 13:16:32;;;;;;;1.05;0.50;;;21.60;63.70;;;;;;4890162;29;20451;-78
2022/05/26 13:19:14;;;;;;;0.93;0.43;;;21.60;63.50;;;;;;4906760;29;20143;-79
2022/05/26 13:22:16;;;;;;;1.08;0.55;;;21.50;63.60;;;;;;4885028;29;20067;-82
2022/05/26 13:25:00;;;;;;;2.28;0.77;;;21.40;63.40;;;;;;4884087;29;20049;-80
2022/05/26 13:27:44;;;;;;;1.60;0.80;;;21.40;63.80;;;;;;4899028;29;20071;-77
2022/05/26 13:35:41;;;;;;;1.05;0.40;;;21.30;63.90;;;;;;4887784;29;20124;-76
2022/05/26 13:38:26;;;;;;;2.47;0.80;;;21.40;63.90;;;;;;4905113;29;20054;-76
2022/05/26 13:40:52;;;;;;;2.05;0.63;;;21.50;63.60;;;;;;4934349;29;20067;-78
2022/05/26 13:43:19;;;;;;;1.55;0.80;;;21.40;63.50;;;;;;4933990;29;20063;-78
2022/05/26 13:45:45;;;;;;;2.40;0.80;;;21.40;63.50;;;;;;4902339;29;20398;-78
2022/05/26 13:49:10;;;;;;;1.33;0.70;;;21.30;63.80;;;;;;4901045;29;20044;-79
2022/05/26 13:51:41;;;;;;;2.75;0.93;;;21.30;64.00;;;;;;4892852;29;20142;-79
2022/05/26 13:54:27;;;;;;;1.25;0.80;;;21.30;64.20;;;;;;4898479;29;20037;-79
2022/05/26 13:56:54;;;;;;;1.40;0.80;;;21.30;64.20;;;;;;4914335;29;20052;-76
2022/05/26 13:59:21;;;;;;;1.75;1.00;;;21.30;64.20;;;;;;4924272;28;20051;-78
2022/05/26 14:01:51;;;;;;;0.80;0.80;;;21.30;64.20;;;;;;4955152;28;20062;-76
2022/05/26 14:04:29;;;;;;;2.58;0.90;;;21.20;64.00;;;;;;4954967;28;20050;-77
2022/05/26 14:06:55;;;;;;;1.20;1.00;;;21.20;64.10;;;;;;4940540;28;20039;-78
2022/05/26 14:09:30;;;;;;;2.53;1.10;;;21.20;64.30;;;;;;4956966;28;20019;-80